Aérodrome :
LOGIN :

S'inscrire | Disclaimer

   EN    FR    IT 

 










Légende :    VFR   VFR Marginal   IFR   IFR Intensif   IFR Très Intensif
Visi : 
Plafond : 
>= 8 km
>= 3000ft
5 à 8 km
1000 à 3000 ft
1500m à 5 km
500 à 1000 ft
800 à 1500m
200 à 500 ft
< 800m
< 200 ft
Symboles :   Orages  Brouillard  Fortes neiges  Fortes précipitations  Vent > 20 kt
SIGMETs :   Divers  Orages  Givrage  Turbulence  Onde Orograph.  Cendres Volcan.







- Altitude de l'aérodrome : 242 ft
- Code IATA : DUB


EIDW - Dublin

DERNIER METAR :
  • 130400Z 25010KT 200V280 9999 FEW012 SCT040 08/06 Q1009 NOSIG

METARs EXPIRÉS :
  • 130330Z 25011KT 220V290 9999 FEW012 SCT040 08/06 Q1008 NOSIG
  • 130300Z 24011KT 200V270 9999 FEW012 BKN040 08/06 Q1008 NOSIG
  • 130230Z 25012KT 200V270 9999 FEW012 BKN040 08/06 Q1007 NOSIG
  • 130200Z 25012KT 210V280 9999 SCT012 BKN040 08/06 Q1007 NOSIG
  • 130130Z 25011G23KT 210V280 9999 SCT012 BKN040 08/06 Q1006 NOSIG

TAF TAF EIDW
Valide du 13 à 00h jusqu'au 14 à 00h UTC


122300Z 1300/1324 24010KT 9999 SCT010 BKN030
PROB30
TEMPO 1300/1302 24015G25KT BKN010
BECMG 1309/1312 21012KT
TEMPO 1314/1318 20015G25KT
BECMG 1319/1322 18018G30KT -RA
PROB30
TEMPO 1321/1324 5000 RA BKN012
Pas de NOTAMs connus pour ce terrain.



MET'MAP, la Météo Aéronautique d'un coup d'oeil ! - Copyright ORBIFLY Décembre 2007 - Disclaimer

ORBIFLY MET'MAP TEAM :

Programmation & Développement : Alexandra Zaïnal
Conception & Développement : Baudouin d'Aumeries
Co-Programmation & Développement : Marc-Olivier Méhu
Soutien technique & logistique : Manuel Goepfert

Contact : metmap@orbifly.com




SOURCES & CREDITS :

   NOAA